Hauptseite
METAR-TAF:

METAR-TAF

Flughäfen :

Flughafen Ajaccio

Ajaccio, Frankreich

Breite: 41-55N, Länge: 008-48E, Höhe: 6 m

Beobachtung

Neuester Wetterbericht von vor 35 Minuten, um 06:30 UTC
Wind 4 kt aus Nordost
Temperatur 23°C
Luftfeuchtigkeit 73%
Luftdruck 1015 hPa
Sichtweite 10 km oder mehr
keine Wolken unter 1500 m und keine Kumulonimbus oder Gewitterwolken

METAR: LFKJ 180630Z AUTO 05004KT CAVOK 23/18 Q1015 BECMG 22010KT

Zeit: 09:05 (07:05 UTC)

Prognose

Neuester Wetterbericht von vor 5 Stunden und 5 Minuten, um 02:00 UTC
Gültige Prognose vom 18 um 03 UTC bis 19 um 03 UTC
Wind 4 kt aus Nordost
Sichtweite 10 km oder mehr
Leicht bewölkt in der Höhe von 2000 ft
Übergehend zu
vom 18 um 06 UTC bis 18 um 08 UTC
Wind 10 kt aus Südwest
Übergehend zu
vom 18 um 18 UTC bis 18 um 20 UTC
Wind 3 kt aus Nordost

TAF: LFKJ 180200Z 1803/1903 04004KT 9999 FEW020 BECMG 1806/1808 22010KT BECMG 1818/1820 04003KT

Wetterbeobachtungen und Prognosen von mehr als 4000 Flughäfen (METAR und TAF Bericht).

Die verfügbaren Stationen werden durch gelbe und rote Markierungen auf der Karte dargestellt.

Führen Sie die Maus auf sie, um den Namen der Station zu sehen.

Darauf klicken, um die Beobachtung von Wetterbeobachtungen und Prognosen zu sehen.

Um die Karte zu ändern : klicken Sie auf den grünen Tasten mit einem schwarzen Kreuz Zum Vergrößern, auf den grünen Button mit einem Gedankenstrich zu verkleinern, oder auf die grünen Pfeile für benachbarte Karten.


METAR-TAF: